createdAt,value
2019-03-20T00:02:17.524Z,5.58
2019-03-20T00:04:49.873Z,5.57
2019-03-20T00:07:20.534Z,5.55
2019-03-20T00:09:51.356Z,5.54
2019-03-20T00:12:22.822Z,5.51
2019-03-20T00:14:53.640Z,5.62
2019-03-20T00:17:24.372Z,5.58
2019-03-20T00:19:56.167Z,5.62
2019-03-20T00:22:26.761Z,5.58
2019-03-20T00:24:57.284Z,5.54
2019-03-20T00:27:29.551Z,5.47
2019-03-20T00:30:01.831Z,5.47
2019-03-20T00:32:32.144Z,5.51
2019-03-20T00:35:03.628Z,5.44
2019-03-20T00:37:33.917Z,5.28
2019-03-20T00:40:07.078Z,5.18
2019-03-20T00:42:37.329Z,5.21
2019-03-20T00:45:10.578Z,5.23
2019-03-20T00:47:40.950Z,5.23
2019-03-20T00:50:15.602Z,5.22
2019-03-20T00:52:46.300Z,5.25
2019-03-20T00:55:17.588Z,5.22
2019-03-20T00:57:48.481Z,5.17
2019-03-20T01:00:25.527Z,5.12
2019-03-20T01:02:56.190Z,5.14
2019-03-20T01:05:27.033Z,4.95
2019-03-20T01:07:59.287Z,4.98
2019-03-20T01:10:29.957Z,4.99
2019-03-20T01:13:00.437Z,4.97
2019-03-20T01:15:31.803Z,4.91
2019-03-20T01:20:42.177Z,4.96
2019-03-20T01:23:13.418Z,4.86
2019-03-20T01:25:43.741Z,4.79
2019-03-20T01:28:14.471Z,4.72
2019-03-20T01:30:45.112Z,4.65
2019-03-20T01:33:15.576Z,4.66
2019-03-20T01:35:47.861Z,4.55
2019-03-20T01:38:18.193Z,4.50
2019-03-20T01:40:49.750Z,4.44
2019-03-20T01:43:22.147Z,4.42
2019-03-20T01:45:53.090Z,4.44
2019-03-20T01:48:23.820Z,4.41
2019-03-20T01:50:57.107Z,4.33
2019-03-20T01:53:29.278Z,4.30
2019-03-20T01:56:01.599Z,4.27
2019-03-20T01:58:32.894Z,4.13
2019-03-20T02:01:03.313Z,4.08
2019-03-20T02:03:33.950Z,4.03
2019-03-20T02:06:04.475Z,4.02
2019-03-20T02:08:35.203Z,4.02
2019-03-20T02:11:05.834Z,4.07
2019-03-20T02:13:36.771Z,3.99
2019-03-20T02:16:07.404Z,3.89
2019-03-20T02:18:40.160Z,3.82
2019-03-20T02:21:10.716Z,3.78
2019-03-20T02:23:41.342Z,3.79
2019-03-20T02:26:12.076Z,3.73
2019-03-20T02:28:44.656Z,3.86
2019-03-20T02:31:15.380Z,4.01
2019-03-20T02:33:46.119Z,4.10
2019-03-20T02:36:16.851Z,4.01
2019-03-20T02:38:47.579Z,4.03
2019-03-20T02:41:18.316Z,3.95
2019-03-20T02:43:51.403Z,3.97
2019-03-20T02:46:22.649Z,3.81
2019-03-20T02:48:55.094Z,3.81
2019-03-20T02:51:26.374Z,3.78
2019-03-20T02:53:56.954Z,3.74
2019-03-20T02:56:29.261Z,3.67
2019-03-20T02:58:59.802Z,3.65
2019-03-20T03:01:30.534Z,3.61
2019-03-20T03:04:01.049Z,3.53
2019-03-20T03:06:31.682Z,3.59
2019-03-20T03:09:02.419Z,3.59
2019-03-20T03:11:33.046Z,3.61
2019-03-20T03:14:03.988Z,3.69
2019-03-20T03:16:37.194Z,3.66
2019-03-20T03:19:09.033Z,3.65
2019-03-20T03:21:39.631Z,3.57
2019-03-20T03:24:10.286Z,3.52
2019-03-20T03:26:41.127Z,3.51
2019-03-20T03:29:12.195Z,3.51
2019-03-20T03:31:43.511Z,3.55
2019-03-20T03:34:15.037Z,3.54
2019-03-20T03:36:46.943Z,3.65
2019-03-20T03:39:17.246Z,3.74
2019-03-20T03:41:47.923Z,3.67
2019-03-20T03:44:18.465Z,3.60
2019-03-20T03:46:49.339Z,3.51
2019-03-20T03:49:20.063Z,3.52
2019-03-20T03:51:51.220Z,3.49
2019-03-20T03:54:21.637Z,3.55
2019-03-20T03:56:54.712Z,3.58
2019-03-20T03:59:25.516Z,3.50
2019-03-20T04:01:56.301Z,3.53
2019-03-20T04:04:27.849Z,3.44
2019-03-20T04:06:58.208Z,3.53
2019-03-20T04:09:28.908Z,3.55
2019-03-20T04:12:01.373Z,3.62
2019-03-20T04:14:31.942Z,3.66
2019-03-20T04:17:02.593Z,3.68
2019-03-20T04:19:36.875Z,3.72
2019-03-20T04:22:07.381Z,3.72
2019-03-20T04:24:38.012Z,3.49
2019-03-20T04:27:08.946Z,3.73
2019-03-20T04:29:39.594Z,3.77
2019-03-20T04:32:10.412Z,3.65
2019-03-20T04:34:41.463Z,3.67
2019-03-20T04:37:13.802Z,3.61
2019-03-20T04:39:44.353Z,3.50
2019-03-20T04:42:15.035Z,3.58
2019-03-20T04:44:46.532Z,3.64
2019-03-20T04:47:17.365Z,3.57
2019-03-20T04:49:50.729Z,3.64
2019-03-20T04:52:21.902Z,3.53
2019-03-20T04:54:53.660Z,3.58
2019-03-20T04:57:26.132Z,3.47
2019-03-20T04:59:57.477Z,3.44
2019-03-20T05:02:28.109Z,3.43
2019-03-20T05:04:59.455Z,3.32
2019-03-20T05:07:30.406Z,3.27
2019-03-20T05:10:01.026Z,2.99
2019-03-20T05:12:31.757Z,3.22
2019-03-20T05:15:02.695Z,3.27
2019-03-20T05:17:33.536Z,3.15
2019-03-20T05:20:06.166Z,3.24
2019-03-20T05:22:36.634Z,2.96
2019-03-20T05:25:07.478Z,3.22
2019-03-20T05:27:38.715Z,3.44
2019-03-20T05:30:12.150Z,3.59
2019-03-20T05:32:43.359Z,3.62
2019-03-20T05:35:13.980Z,3.55
2019-03-20T05:37:44.611Z,3.64
2019-03-20T05:40:19.232Z,3.59
2019-03-20T05:42:50.777Z,3.64
2019-03-20T05:45:21.578Z,3.58
2019-03-20T05:47:55.020Z,3.76
2019-03-20T05:50:25.440Z,3.78
2019-03-20T05:52:56.004Z,3.82
2019-03-20T05:55:26.600Z,3.96
2019-03-20T05:57:57.354Z,3.92
2019-03-20T06:00:29.702Z,3.75
2019-03-20T06:03:00.249Z,4.00
2019-03-20T06:05:30.861Z,3.99
2019-03-20T06:08:01.489Z,3.94
2019-03-20T06:10:32.207Z,3.87
2019-03-20T06:13:02.852Z,3.83
2019-03-20T06:15:34.043Z,4.00
2019-03-20T06:18:04.827Z,4.20
2019-03-20T06:20:35.363Z,3.97
2019-03-20T06:23:06.603Z,4.00
2019-03-20T06:25:36.924Z,3.71
2019-03-20T06:28:08.273Z,4.14
2019-03-20T06:30:39.640Z,4.36
2019-03-20T06:33:11.378Z,4.43
2019-03-20T06:35:43.134Z,4.60
2019-03-20T06:38:14.273Z,4.80
2019-03-20T06:40:45.123Z,4.68
2019-03-20T06:43:15.814Z,4.61
2019-03-20T06:45:47.088Z,4.79
2019-03-20T06:48:17.419Z,4.83
2019-03-20T06:50:48.275Z,4.51
2019-03-20T06:53:18.992Z,4.39
2019-03-20T06:55:49.811Z,4.12
2019-03-20T06:58:20.894Z,4.16
2019-03-20T07:01:03.773Z,4.33
2019-03-20T07:03:40.543Z,4.33
2019-03-20T07:06:23.672Z,4.47
2019-03-20T07:09:04.872Z,4.36
2019-03-20T07:11:39.475Z,4.40
2019-03-20T07:14:09.823Z,4.70
2019-03-20T07:16:40.522Z,4.68
2019-03-20T07:19:11.255Z,4.89
2019-03-20T07:21:41.694Z,5.04
2019-03-20T07:24:15.197Z,5.17
2019-03-20T07:26:45.712Z,5.35
2019-03-20T07:29:16.955Z,5.46
2019-03-20T07:31:49.216Z,5.68
2019-03-20T07:34:21.769Z,5.50
2019-03-20T07:36:53.044Z,5.59
2019-03-20T07:39:23.671Z,5.63
2019-03-20T07:41:54.834Z,6.14
2019-03-20T07:44:25.248Z,6.59
2019-03-20T07:46:58.147Z,6.87
2019-03-20T07:49:31.298Z,7.05
2019-03-20T07:52:02.545Z,7.24
2019-03-20T07:54:33.295Z,7.46
2019-03-20T07:57:04.022Z,7.62
2019-03-20T07:59:36.089Z,7.74
2019-03-20T08:02:06.600Z,7.78
2019-03-20T08:04:37.936Z,8.35
2019-03-20T08:07:10.205Z,8.73
2019-03-20T08:09:40.630Z,8.37
2019-03-20T08:12:12.915Z,8.80
2019-03-20T08:14:45.026Z,8.98
2019-03-20T08:17:15.826Z,9.47
2019-03-20T08:19:46.909Z,9.69
2019-03-20T08:22:18.112Z,10.05
2019-03-20T08:24:48.839Z,10.43
2019-03-20T08:27:19.778Z,10.75
2019-03-20T08:29:50.610Z,10.97
2019-03-20T08:32:21.445Z,11.17
2019-03-20T08:34:52.191Z,11.36
2019-03-20T08:37:23.424Z,11.40
2019-03-20T08:39:53.756Z,11.69
2019-03-20T08:42:24.555Z,11.63
2019-03-20T08:44:58.061Z,12.00
2019-03-20T08:47:28.733Z,12.07
2019-03-20T08:50:00.338Z,12.31
2019-03-20T08:52:30.792Z,11.41
2019-03-20T08:55:01.429Z,11.62
2019-03-20T08:57:32.665Z,12.54
2019-03-20T09:00:02.878Z,12.52
2019-03-20T09:02:34.121Z,13.00
2019-03-20T09:05:08.314Z,13.35
2019-03-20T09:07:47.167Z,13.28
2019-03-20T09:10:18.381Z,13.91
2019-03-20T09:12:50.799Z,13.81
2019-03-20T09:15:21.590Z,14.06
2019-03-20T09:17:53.498Z,14.79
2019-03-20T09:20:25.123Z,14.40
2019-03-20T09:22:55.862Z,14.69
2019-03-20T09:25:30.119Z,14.92
2019-03-20T09:28:00.609Z,15.20
2019-03-20T09:30:33.279Z,14.93
2019-03-20T09:33:03.646Z,15.09
2019-03-20T09:35:34.964Z,15.63
2019-03-20T09:38:05.479Z,15.40
2019-03-20T09:40:39.169Z,15.99
2019-03-20T09:43:11.156Z,16.02
2019-03-20T09:45:43.211Z,16.44
2019-03-20T09:48:14.052Z,16.30
2019-03-20T09:50:44.776Z,15.32
2019-03-20T09:53:15.507Z,16.26
2019-03-20T09:55:48.187Z,16.02
2019-03-20T09:58:19.941Z,16.44
2019-03-20T10:00:50.776Z,17.02
2019-03-20T10:03:21.923Z,17.33
2019-03-20T10:05:56.442Z,17.74
2019-03-20T10:08:27.273Z,18.25
2019-03-20T10:10:58.216Z,18.28
2019-03-20T10:13:29.969Z,18.47
2019-03-20T10:16:00.611Z,19.51
2019-03-20T10:18:31.515Z,19.23
2019-03-20T10:21:02.273Z,18.90
2019-03-20T10:23:33.008Z,18.89
2019-03-20T10:26:03.899Z,19.02
2019-03-20T10:28:34.682Z,18.84
2019-03-20T10:31:05.608Z,19.03
2019-03-20T10:33:36.363Z,19.11
2019-03-20T10:36:06.972Z,18.65
2019-03-20T10:38:38.671Z,18.85
2019-03-20T10:41:10.686Z,20.61
2019-03-20T10:43:42.140Z,21.17
2019-03-20T10:46:13.597Z,21.62
2019-03-20T10:48:44.735Z,21.42
2019-03-20T10:51:15.160Z,21.73
2019-03-20T10:53:47.538Z,22.53
2019-03-20T10:56:18.161Z,22.64
2019-03-20T10:58:48.813Z,22.10
2019-03-20T11:01:19.423Z,22.83
2019-03-20T11:03:51.084Z,22.69
2019-03-20T11:06:22.527Z,23.20
2019-03-20T11:08:52.878Z,23.19
2019-03-20T11:11:27.316Z,23.21
2019-03-20T11:13:56.360Z,23.64
2019-03-20T11:16:27.109Z,23.54
2019-03-20T11:18:58.728Z,23.64
2019-03-20T11:21:29.280Z,24.11
2019-03-20T11:24:04.314Z,24.44
2019-03-20T11:26:35.661Z,24.10
2019-03-20T11:29:06.194Z,23.99
2019-03-20T11:31:37.775Z,24.08
2019-03-20T11:34:09.700Z,24.11
2019-03-20T11:36:40.231Z,24.79
2019-03-20T11:39:12.287Z,24.84
2019-03-20T11:41:43.046Z,25.09
2019-03-20T11:44:13.755Z,25.21
2019-03-20T11:46:45.738Z,25.33
2019-03-20T11:49:16.993Z,25.11
2019-03-20T11:51:49.026Z,25.20
2019-03-20T11:54:19.653Z,25.08
2019-03-20T11:56:50.285Z,24.80
2019-03-20T11:59:21.839Z,24.83
2019-03-20T12:01:54.206Z,25.28
2019-03-20T12:04:24.939Z,25.30
2019-03-20T12:06:55.455Z,25.17
2019-03-20T12:09:26.639Z,25.37
2019-03-20T12:11:57.447Z,24.88
2019-03-20T12:14:29.004Z,25.87
2019-03-20T12:16:59.934Z,25.46
2019-03-20T12:19:31.184Z,25.35
2019-03-20T12:22:01.510Z,25.13
2019-03-20T12:24:32.262Z,24.69
2019-03-20T12:27:14.184Z,25.40
2019-03-20T12:29:36.568Z,24.13
2019-03-20T12:32:08.526Z,24.46
2019-03-20T12:34:39.262Z,25.36
2019-03-20T12:37:10.742Z,25.01
2019-03-20T12:39:52.641Z,24.71
2019-03-20T12:42:13.627Z,24.83
2019-03-20T12:44:44.345Z,25.47
2019-03-20T12:47:16.711Z,26.01
2019-03-20T12:49:48.113Z,25.20
2019-03-20T12:52:19.709Z,24.39
2019-03-20T12:54:50.035Z,23.78
2019-03-20T12:57:21.098Z,23.91
2019-03-20T12:59:51.410Z,24.52
2019-03-20T13:02:21.933Z,24.30
2019-03-20T13:04:53.481Z,24.44
2019-03-20T13:07:24.210Z,24.81
2019-03-20T13:10:03.169Z,25.54
2019-03-20T13:12:28.750Z,25.40
2019-03-20T13:14:59.378Z,25.26
2019-03-20T13:17:30.126Z,24.68
2019-03-20T13:20:00.844Z,24.86
2019-03-20T13:22:31.427Z,24.55
2019-03-20T13:25:03.630Z,24.03
2019-03-20T13:27:34.087Z,24.05
2019-03-20T13:30:20.409Z,24.22
2019-03-20T13:32:51.213Z,23.57
2019-03-20T13:35:24.283Z,23.13
2019-03-20T13:37:55.018Z,23.46
2019-03-20T13:40:26.567Z,23.27
2019-03-20T13:42:57.233Z,23.31
2019-03-20T13:45:28.854Z,23.02
2019-03-20T13:48:01.739Z,23.38
2019-03-20T13:50:32.883Z,22.54
2019-03-20T13:53:04.434Z,22.14
2019-03-20T13:55:35.375Z,22.13
2019-03-20T13:58:06.207Z,22.48
2019-03-20T14:00:37.147Z,22.21
2019-03-20T14:03:07.787Z,22.32
2019-03-20T14:05:40.758Z,21.95
2019-03-20T14:08:11.395Z,21.84
2019-03-20T14:10:50.202Z,21.95
2019-03-20T14:13:16.038Z,21.34
2019-03-20T14:15:47.541Z,21.17
2019-03-20T14:18:18.425Z,21.19
2019-03-20T14:20:49.147Z,21.34
2019-03-20T14:23:19.986Z,21.37
2019-03-20T14:25:50.792Z,21.27
2019-03-20T14:28:21.672Z,21.19
2019-03-20T14:30:53.539Z,20.60
2019-03-20T14:33:23.844Z,20.55
2019-03-20T14:35:54.626Z,20.50
2019-03-20T14:38:27.038Z,19.18
2019-03-20T14:40:58.133Z,18.08
2019-03-20T14:43:29.118Z,18.22
2019-03-20T14:45:59.753Z,18.68
2019-03-20T14:48:30.388Z,18.76
2019-03-20T14:51:01.117Z,18.58
2019-03-20T14:53:31.916Z,18.22
2019-03-20T14:56:02.681Z,17.79
2019-03-20T14:58:38.137Z,17.57
2019-03-20T15:01:08.970Z,17.45
2019-03-20T15:03:39.372Z,16.78
2019-03-20T15:06:10.010Z,16.13
2019-03-20T15:08:41.804Z,15.85
2019-03-20T15:11:13.344Z,15.49
2019-03-20T15:13:45.692Z,14.99
2019-03-20T15:16:17.448Z,14.95
2019-03-20T15:18:49.036Z,14.52
2019-03-20T15:21:19.496Z,14.20
2019-03-20T15:23:49.971Z,13.81
2019-03-20T15:26:20.798Z,13.52
2019-03-20T15:28:51.823Z,13.44
2019-03-20T15:31:23.982Z,13.45
2019-03-20T15:33:54.827Z,13.33
2019-03-20T15:36:25.464Z,13.06
2019-03-20T15:38:56.207Z,12.98
2019-03-20T15:41:26.937Z,12.91
2019-03-20T15:44:02.703Z,12.80
2019-03-20T15:46:31.376Z,12.67
2019-03-20T15:49:02.703Z,12.49
2019-03-20T15:51:33.235Z,12.40
2019-03-20T15:54:05.172Z,12.30
2019-03-20T15:56:36.139Z,12.13
2019-03-20T15:59:06.876Z,11.81
2019-03-20T16:01:37.494Z,11.67
2019-03-20T16:04:08.045Z,11.56
2019-03-20T16:06:38.651Z,11.36
2019-03-20T16:09:09.867Z,11.32
2019-03-20T16:11:40.632Z,11.29
2019-03-20T16:14:11.261Z,11.35
2019-03-20T16:16:43.434Z,10.95
2019-03-20T16:19:14.262Z,11.30
2019-03-20T16:21:45.205Z,11.16
2019-03-20T16:24:16.645Z,11.14
2019-03-20T16:26:47.892Z,11.03
2019-03-20T16:29:20.512Z,11.01
2019-03-20T16:31:51.306Z,11.00
2019-03-20T16:34:22.379Z,10.87
2019-03-20T16:36:53.217Z,10.82
2019-03-20T16:39:24.730Z,10.86
2019-03-20T16:41:55.473Z,10.60
2019-03-20T16:44:26.193Z,10.50
2019-03-20T16:46:58.773Z,10.49
2019-03-20T16:49:29.396Z,10.55
2019-03-20T16:52:01.360Z,10.47
2019-03-20T16:54:32.194Z,10.40
2019-03-20T16:57:02.724Z,10.32
2019-03-20T16:59:33.355Z,10.35
2019-03-20T17:02:04.815Z,10.37
2019-03-20T17:04:36.353Z,10.28
2019-03-20T17:07:07.596Z,10.22
2019-03-20T17:09:38.447Z,10.15
2019-03-20T17:12:11.085Z,10.11
2019-03-20T17:14:42.994Z,9.94
2019-03-20T17:17:14.211Z,9.80
2019-03-20T17:19:44.973Z,9.77
2019-03-20T17:22:16.279Z,9.30
2019-03-20T17:24:47.624Z,9.43
2019-03-20T17:27:18.168Z,9.34
2019-03-20T17:29:49.004Z,9.27
2019-03-20T17:32:20.246Z,9.22
2019-03-20T17:34:51.390Z,9.17
2019-03-20T17:37:22.693Z,9.19
2019-03-20T17:39:53.373Z,9.27
2019-03-20T17:42:25.530Z,9.28
2019-03-20T17:44:57.699Z,9.20
2019-03-20T17:47:27.978Z,9.26
2019-03-20T17:49:58.548Z,9.24
2019-03-20T17:52:29.280Z,9.26
2019-03-20T17:55:01.564Z,9.28
2019-03-20T17:57:31.977Z,9.22
2019-03-20T18:00:02.916Z,9.07
2019-03-20T18:02:33.647Z,9.05
2019-03-20T18:05:05.976Z,8.96
2019-03-20T18:07:36.657Z,8.85
2019-03-20T18:10:07.389Z,8.75
2019-03-20T18:12:38.108Z,8.64
2019-03-20T18:15:11.914Z,8.51
2019-03-20T18:17:42.184Z,8.50
2019-03-20T18:20:20.038Z,8.35
2019-03-20T18:22:51.196Z,8.31
2019-03-20T18:25:21.501Z,8.19
2019-03-20T18:27:53.770Z,8.09
2019-03-20T18:30:25.429Z,8.01
2019-03-20T18:32:55.851Z,7.97
2019-03-20T18:35:26.683Z,7.96
2019-03-20T18:37:57.528Z,7.96
2019-03-20T18:40:28.561Z,7.94
2019-03-20T18:43:00.111Z,7.92
2019-03-20T18:45:30.741Z,7.94
2019-03-20T18:48:01.271Z,7.97
2019-03-20T18:50:31.591Z,7.98
2019-03-20T18:53:02.220Z,7.99
2019-03-20T18:55:32.856Z,7.97
2019-03-20T18:58:03.864Z,7.99
2019-03-20T19:00:35.442Z,7.99
2019-03-20T19:03:23.574Z,8.05
2019-03-20T19:05:57.188Z,7.96
2019-03-20T19:08:28.327Z,7.86
2019-03-20T19:10:59.990Z,7.78
2019-03-20T19:13:31.315Z,7.68
2019-03-20T19:16:01.856Z,7.57
2019-03-20T19:18:32.499Z,7.46
2019-03-20T19:21:03.218Z,7.38
2019-03-20T19:23:34.060Z,7.24
2019-03-20T19:26:05.503Z,7.17
2019-03-20T19:28:36.441Z,7.14
2019-03-20T19:31:06.735Z,7.07
2019-03-20T19:33:37.287Z,7.00
2019-03-20T19:36:08.930Z,6.99
2019-03-20T19:38:39.264Z,6.99
2019-03-20T19:41:09.891Z,6.93
2019-03-20T19:43:40.730Z,6.96
2019-03-20T19:46:11.460Z,7.04
2019-03-20T19:48:42.099Z,7.07
2019-03-20T19:51:13.044Z,6.96
2019-03-20T19:53:43.624Z,6.94
2019-03-20T19:56:14.494Z,7.01
2019-03-20T19:58:45.330Z,7.02
2019-03-20T20:01:16.453Z,6.99
2019-03-20T20:03:47.201Z,6.99
2019-03-20T20:06:18.653Z,6.99
2019-03-20T20:08:49.118Z,6.93
2019-03-20T20:11:19.755Z,6.93
2019-03-20T20:13:50.302Z,6.93
2019-03-20T20:16:21.175Z,6.65
2019-03-20T20:18:51.908Z,6.99
2019-03-20T20:21:23.724Z,6.95
2019-03-20T20:23:54.397Z,6.95
2019-03-20T20:26:26.663Z,6.87
2019-03-20T20:28:56.972Z,6.87
2019-03-20T20:31:27.822Z,6.77
2019-03-20T20:33:58.250Z,6.83
2019-03-20T20:36:28.928Z,6.86
2019-03-20T20:38:59.511Z,6.82
2019-03-20T20:41:30.681Z,6.82
2019-03-20T20:44:01.278Z,6.81
2019-03-20T20:46:31.951Z,6.76
2019-03-20T20:49:02.847Z,6.79
2019-03-20T20:51:33.578Z,6.74
2019-03-20T20:54:04.527Z,6.72
2019-03-20T20:56:35.153Z,6.68
2019-03-20T20:59:06.287Z,6.69
2019-03-20T21:01:37.637Z,6.74
2019-03-20T21:04:08.981Z,6.74
2019-03-20T21:06:40.944Z,6.68
2019-03-20T21:09:13.829Z,6.62
2019-03-20T21:11:45.276Z,6.60
2019-03-20T21:14:15.598Z,6.57
2019-03-20T21:16:46.331Z,6.62
2019-03-20T21:19:33.695Z,6.58
2019-03-20T21:22:22.169Z,6.61
2019-03-20T21:24:53.346Z,6.59
2019-03-20T21:28:01.071Z,6.60
2019-03-20T21:30:48.813Z,6.53
2019-03-20T21:33:55.865Z,6.48
2019-03-20T21:36:44.030Z,6.50
2019-03-20T21:39:15.447Z,6.45
2019-03-20T21:41:58.264Z,6.40
2019-03-20T21:44:50.296Z,6.39
2019-03-20T21:47:35.931Z,6.41
2019-03-20T21:50:21.214Z,6.47
2019-03-20T21:52:52.393Z,6.44
2019-03-20T21:55:42.482Z,6.39
2019-03-20T21:58:19.153Z,6.43
2019-03-20T22:01:11.388Z,6.38
2019-03-20T22:03:44.007Z,6.36
2019-03-20T22:06:40.294Z,6.30
2019-03-20T22:09:13.045Z,6.29
2019-03-20T22:12:06.337Z,6.26
2019-03-20T22:14:37.070Z,6.25
2019-03-20T22:17:34.325Z,6.25
2019-03-20T22:20:26.150Z,6.25
2019-03-20T22:22:59.957Z,6.30
2019-03-20T22:25:55.875Z,6.32
2019-03-20T22:29:01.662Z,6.27
2019-03-20T22:31:35.624Z,6.24
2019-03-20T22:34:25.878Z,6.27
2019-03-20T22:36:56.972Z,6.28
2019-03-20T22:40:02.459Z,6.29
2019-03-20T22:42:45.027Z,6.30
2019-03-20T22:45:30.914Z,6.32
2019-03-20T22:48:10.892Z,6.29
2019-03-20T22:50:46.205Z,6.26
2019-03-20T22:53:25.233Z,6.21
2019-03-20T22:56:18.597Z,6.15
2019-03-20T22:58:49.685Z,6.15
2019-03-20T23:01:25.796Z,6.12
2019-03-20T23:03:59.709Z,6.11
2019-03-20T23:06:31.368Z,6.02
2019-03-20T23:09:01.677Z,6.01
2019-03-20T23:11:32.511Z,5.98
2019-03-20T23:14:03.040Z,5.99
2019-03-20T23:16:33.775Z,6.01
2019-03-20T23:19:04.504Z,5.91
2019-03-20T23:21:34.960Z,5.93
2019-03-20T23:24:05.561Z,5.87
2019-03-20T23:26:36.297Z,5.85
2019-03-20T23:29:06.725Z,5.84
2019-03-20T23:31:37.248Z,5.84
2019-03-20T23:34:08.699Z,5.84
2019-03-20T23:36:39.537Z,5.88
2019-03-20T23:39:10.155Z,5.83
2019-03-20T23:41:42.390Z,5.83
2019-03-20T23:44:13.156Z,5.75
2019-03-20T23:46:43.994Z,5.74
2019-03-20T23:49:20.462Z,5.74
2019-03-20T23:51:50.886Z,5.75
2019-03-20T23:54:24.913Z,5.74
2019-03-20T23:56:56.192Z,5.71
2019-03-20T23:59:27.005Z,5.67
